• Join FlightAware (Why Join?)
  • Login
  • US Flag 
09:19AM EST


 

Airport Tracker/Info


-or-


 

Live Flight TrackerFlight Track Log ✈ DLH1445 ✈ 02-Jul-2012 ✈ UUDD / DME - EDDF / FRA

Flight Track Log - Related Links

Times and Time Zones

All times are in EDT time to prevent confusion due to time zone crossing. See the DLH1445 flight status page for this flight to view local times or setup timezone preferences in your user account.

Time Position Orientation Groundspeed Altitude Reporting Facility
EDT Latitude Longitude Course Direction KTS MPH feet Rate Location/Type
05:58AM 55.4251 37.8677 327° Northwest 173 199 1,600  Level FlightAware
05:58AM 55.4481 37.8411 326° Northwest 194 223 2,500 1,980 Climbing FlightAware
05:59AM 55.4717 37.8134 327° Northwest 219 252 3,300 1,080 Climbing FlightAware
05:59AM 55.4771 37.8071 309° West 230 265 3,400 1,200 Climbing FlightAware
05:59AM 55.4869 37.7860 291° West 247 284 3,700 2,460 Climbing FlightAware
05:59AM 55.4912 37.7657 272° West 254 292 3,900 540 Climbing FlightAware
05:59AM 55.4916 37.7405 214° Southwest 261 300 4,000 1,260 Climbing FlightAware
06:00AM 55.4510 37.6923 164° South 285 328 5,100 2,100 Climbing FlightAware
06:00AM 55.4402 37.6977 154° Southeast 294 338 5,500 2,040 Climbing FlightAware
06:00AM 55.4262 37.7100 144° Southeast 298 343 6,100 2,280 Climbing FlightAware
06:01AM 55.3985 37.7450 145° Southeast 304 350 7,200 3,480 Climbing FlightAware
06:01AM 55.3695 37.7808 146° Southeast 306 352 8,500 3,480 Climbing FlightAware
06:01AM 55.3454 37.8094 158° South 311 358 9,300 2,400 Climbing FlightAware
06:02AM 55.3196 37.8276 186° South 318 366 10,100 1,920 Climbing FlightAware
06:02AM 55.2751 37.8198 203° Southwest 325 374 10,900 1,380 Climbing FlightAware
06:03AM 55.2346 37.7896 39° Northeast 349 402 11,500 660 Climbing FlightAware
06:03AM 55.2407 37.7983 229° Southwest 336 387 11,300 2,400 Descending FlightAware
06:03AM 55.2234 37.7634 251° West 345 397 11,900 3,780 Climbing FlightAware
06:03AM 55.2163 37.7263 262° West 336 387 12,500 2,640 Climbing FlightAware
06:04AM 55.2095 37.6438 262° West 336 387 13,900 2,460 Climbing FlightAware
06:04AM 55.2019 37.5484 262° West 344 396 15,200 1,800 Climbing FlightAware
06:05AM 55.1941 37.4509 262° West 363 418 16,000 1,560 Climbing FlightAware
06:05AM 55.1870 37.3653 262° West 374 430 16,900 1,620 Climbing FlightAware
06:06AM 55.1777 37.2530 262° West 384 442 17,900 1,440 Climbing FlightAware
06:07AM 55.1679 37.1358 262° West 393 452 18,700 1,680 Climbing FlightAware
06:07AM 55.1569 37.0046 262° West 399 459 20,000 1,800 Climbing FlightAware
06:08AM 55.1487 36.9082 262° West 404 465 20,800 1,440 Climbing FlightAware
06:08AM 55.1379 36.7824 261° West 413 475 21,700 1,260 Climbing FlightAware
06:09AM 55.1274 36.6608 261° West 424 488 22,400 1,260 Climbing FlightAware
06:10AM 55.1165 36.5389 261° West 430 495 23,200 1,320 Climbing FlightAware
06:10AM 55.1045 36.4034 261° West 436 502 24,100 1,260 Climbing FlightAware
06:11AM 55.0954 36.3026 261° West 436 502 24,700 1,080 Climbing FlightAware
06:11AM 55.0833 36.1695 255° West 442 509 25,400 900 Climbing FlightAware
06:12AM 55.0659 36.0547 237° Southwest 451 519 25,800 480 Climbing FlightAware
06:13AM 55.0225 35.9384 236° Southwest 454 522 26,000 120 Climbing FlightAware
06:13AM 54.9854 35.8444 235° Southwest 454 522 26,000 120 Level FlightAware
06:14AM 54.9418 35.7342 236° Southwest 454 522 26,200 480 Climbing FlightAware
06:14AM 54.9049 35.6400 255° West 461 531 26,600 1,080 Climbing FlightAware
06:15AM 54.8792 35.4781 263° West 450 518 27,600 1,200 Climbing FlightAware
06:16AM 54.8708 35.3594 263° West 450 518 28,200 1,020 Climbing FlightAware
06:16AM 54.8616 35.2261 263° West 452 520 28,800 780 Climbing FlightAware
06:17AM 54.8541 35.1176 263° West 461 531 29,100 720 Climbing FlightAware
06:17AM 54.8445 34.9818 263° West 458 527 29,700 960 Climbing FlightAware
06:18AM 54.8326 34.8155 263° West 464 534 30,500 1,080 Climbing FlightAware
06:19AM 54.8233 34.6892 263° West 464 534 31,100 1,080 Climbing FlightAware
06:19AM 54.8199 34.6410 263° West 461 531 31,700 1,500 Climbing FlightAware
06:20AM 54.8035 34.4232 262° West 445 512 33,000 1,380 Climbing FlightAware
06:21AM 54.7924 34.2789 263° West 432 497 33,700 720 Climbing FlightAware
06:21AM 54.7833 34.1586 262° West 435 501 34,000 240 Climbing FlightAware
06:22AM 54.7737 34.0344 262° West 443 510 34,000  Level FlightAware
06:22AM 54.7640 33.9122 262° West 447 514 34,000  Level FlightAware
06:23AM 54.7536 33.7852 262° West 446 513 34,000  Level FlightAware
06:24AM 54.7362 33.5730 262° West 448 516 34,000  Level FlightAware
06:25AM 54.7239 33.4247 262° West 450 518 34,000  Level FlightAware
06:25AM 54.7144 33.3133 262° West 450 518 34,000  Level FlightAware
06:26AM 54.7020 33.1683 262° West 449 517 34,000  Level FlightAware
06:28AM 54.6702 32.8065 261° West 449 517 34,000  Level FlightAware
06:28AM 54.6591 32.6832 261° West 447 514 34,000  Level FlightAware
06:30AM 54.6255 32.3194 259° West 440 506 34,000  Level FlightAware
06:39AM 54.4175 30.5293 255° West 431 496 34,000  Level FlightAware
06:39AM 54.4013 30.4251 255° West 430 495 34,000  Level FlightAware
06:40AM 54.3789 30.2811 255° West 426 490 34,000  Level FlightAware
06:40AM 54.3629 30.1795 255° West 425 489 34,000 -120 Level FlightAware
06:41AM 54.3452 30.0674 255° West 425 489 33,900  Descending FlightAware
06:42AM 54.3257 29.9457 255° West 425 489 34,000 60 Climbing FlightAware
06:42AM 54.3094 29.8431 255° West 425 489 34,000  Level FlightAware
06:43AM 54.2888 29.7157 254° West 426 490 34,000  Level FlightAware
06:43AM 54.2722 29.6136 254° West 426 490 34,000  Level FlightAware
06:44AM 54.2512 29.4856 254° West 427 491 34,000  Level FlightAware
06:45AM 54.2359 29.3924 254° West 427 491 34,000  Level FlightAware
06:45AM 54.2163 29.2746 254° West 426 490 34,000  Level FlightAware
06:46AM 54.1945 29.1445 254° West 424 488 34,000  Level FlightAware
06:46AM 54.1784 29.0480 254° West 422 486 34,000  Level FlightAware
06:47AM 54.1602 28.9396 254° West 422 486 34,000  Level FlightAware
06:48AM 54.1173 28.6892 254° West 418 481 34,000  Level FlightAware
06:49AM 54.0976 28.5750 254° West 416 479 34,000  Level FlightAware
06:49AM 54.0762 28.4512 253° West 413 475 34,000  Level FlightAware
06:50AM 54.0570 28.3417 253° West 413 475 34,000  Level FlightAware
06:51AM 54.0351 28.2174 253° West 413 475 34,000  Level FlightAware
06:52AM 54.0062 28.0546 253° West 413 475 34,000  Level FlightAware
06:52AM 53.9811 27.9133 253° West 414 476 34,000  Level FlightAware
06:53AM 53.9640 27.8190 253° West 414 476 34,000  Level FlightAware
06:53AM 53.9438 27.7070 253° West 414 476 34,000  Level FlightAware
06:54AM 53.9226 27.5905 253° West 415 478 34,000  Level FlightAware
06:55AM 53.9039 27.4888 253° West 416 479 34,000  Level FlightAware
06:55AM 53.8835 27.3778 253° West 416 479 34,000  Level FlightAware
06:56AM 53.8677 27.2923 252° West 415 478 34,000  Level FlightAware
06:56AM 53.8430 27.1602 252° West 414 476 34,000  Level FlightAware
06:57AM 53.8197 27.0358 252° West 413 475 34,000  Level FlightAware
06:58AM 53.7988 26.9255 252° West 412 474 34,000  Level FlightAware
06:58AM 53.7791 26.8212 252° West 412 474 34,000  Level FlightAware
06:59AM 53.7585 26.7134 252° West 411 473 34,000  Level FlightAware
06:59AM 53.7413 26.6237 252° West 411 473 34,000  Level FlightAware
07:00AM 53.7177 26.5010 245° Southwest 410 472 34,000  Level FlightAware
07:01AM 53.6938 26.4131 241° Southwest 411 473 34,000  Level FlightAware
07:01AM 53.6589 26.3086 241° Southwest 411 473 34,000  Level FlightAware
07:02AM 53.6277 26.2157 242° Southwest 411 473 34,000  Level FlightAware
07:02AM 53.6008 26.1322 251° West 412 474 34,000  Level FlightAware
07:03AM 53.5748 26.0074 253° West 410 472 34,000  Level FlightAware
07:03AM 53.5566 25.9058 253° West 411 473 34,000  Level FlightAware
07:04AM 53.5348 25.7843 253° West 412 474 34,000  Level FlightAware
07:05AM 53.5177 25.6889 253° West 413 475 34,000  Level FlightAware
07:05AM 53.5009 25.5964 253° West 413 475 34,000  Level FlightAware
07:06AM 53.4814 25.4888 253° West 414 476 34,000  Level FlightAware
07:06AM 53.4588 25.3652 253° West 414 476 34,000  Level FlightAware
07:07AM 53.4388 25.2557 253° West 415 478 34,000  Level FlightAware
07:08AM 53.4194 25.1515 253° West 414 476 34,000  Level FlightAware
07:08AM 53.4002 25.0478 252° West 414 476 34,000  Level FlightAware
07:09AM 53.3792 24.9366 252° West 416 479 34,000  Level FlightAware
07:09AM 53.3547 24.8068 252° West 417 480 34,000  Level FlightAware
07:10AM 53.3346 24.7004 252° West 417 480 34,000  Level FlightAware
07:10AM 53.3213 24.6307 252° West 417 480 34,000  Level FlightAware
07:11AM 53.2979 24.5078 252° West 416 479 34,000  Level FlightAware
07:12AM 53.2768 24.3993 252° West 416 479 34,000  Level FlightAware
07:12AM 53.2566 24.2948 252° West 415 478 34,000  Level FlightAware
07:13AM 53.2388 24.2030 252° West 415 478 34,000  Level FlightAware
07:13AM 53.2179 24.0962 252° West 415 478 34,000  Level FlightAware
07:14AM 53.1949 23.9795 251° West 415 478 34,000  Level FlightAware
07:14AM 53.1771 23.8928 246° West 415 478 34,000  Level FlightAware
07:15AM 53.1508 23.7921 246° West 415 478 34,000  Level FlightAware
07:16AM 53.1247 23.6941 246° West 415 478 34,000  Level FlightAware
07:16AM 53.0918 23.5703 246° West 415 478 34,000  Level FlightAware
07:17AM 53.0694 23.4871 246° West 415 478 34,000  Level FlightAware
07:18AM 53.0197 23.3032 246° West 414 476 34,000  Level FlightAware
07:18AM 52.9902 23.1947 245° Southwest 411 473 34,000  Level FlightAware
07:19AM 52.9698 23.1207 246° West 411 473 34,000  Level FlightAware
07:19AM 52.9406 23.0134 245° Southwest 414 476 34,000  Level FlightAware
07:20AM 52.9104 22.9037 245° Southwest 415 478 34,000  Level FlightAware
07:21AM 52.8816 22.8034 245° Southwest 421 484 34,000  Level FlightAware
07:21AM 52.8495 22.6911 245° Southwest 422 486 34,000  Level FlightAware
07:22AM 52.8205 22.5904 245° Southwest 422 486 34,000  Level FlightAware
07:23AM 52.7870 22.4742 245° Southwest 423 487 34,000  Level FlightAware
07:23AM 52.7635 22.3922 245° Southwest 424 488 34,000  Level FlightAware
07:24AM 52.7370 22.2975 245° Southwest 424 488 34,000  Level FlightAware
07:24AM 52.7035 22.1791 245° Southwest 425 489 34,000  Level FlightAware
07:25AM 52.6753 22.0798 245° Southwest 424 488 34,000  Level FlightAware
07:25AM 52.6457 21.9754 245° Southwest 425 489 34,000  Level FlightAware
07:26AM 52.6115 21.8563 245° Southwest 425 489 34,000  Level FlightAware
07:27AM 52.5869 21.7706 245° Southwest 425 489 34,000  Level FlightAware
07:27AM 52.5587 21.6729 245° Southwest 425 489 34,000  Level FlightAware
07:28AM 52.5263 21.5605 245° Southwest 424 488 34,000  Level FlightAware
07:28AM 52.5008 21.4725 244° Southwest 416 479 34,000  Level FlightAware
07:29AM 52.4726 21.3763 244° Southwest 415 478 34,000  Level FlightAware
07:29AM 52.4429 21.2757 244° Southwest 417 480 34,000  Level FlightAware
07:30AM 52.4133 21.1744 244° Southwest 417 480 34,000  Level FlightAware
07:31AM 52.3869 21.0852 244° Southwest 416 479 34,000  Level FlightAware
07:31AM 52.3590 20.9909 244° Southwest 415 478 34,000  Level FlightAware
07:32AM 52.3254 20.8777 244° Southwest 415 478 34,000  Level FlightAware
07:32AM 52.3020 20.8000 246° West 412 474 34,000  Level FlightAware
07:33AM 52.2684 20.6740 255° West 415 478 34,000  Level FlightAware
07:34AM 52.2500 20.5623 260° West 423 487 34,000  Level FlightAware
07:34AM 52.2371 20.4381 262° West 424 488 34,000  Level FlightAware
07:35AM 52.2262 20.3128 262° West 424 488 34,000  Level FlightAware
07:35AM 52.2177 20.2191 262° West 423 487 34,000  Level FlightAware
07:36AM 52.2058 20.0896 261° West 424 488 34,000  Level FlightAware
07:37AM 52.1954 19.9772 261° West 423 487 34,000  Level FlightAware
07:37AM 52.1865 19.8830 261° West 423 487 34,000  Level FlightAware
07:38AM 52.1766 19.7785 261° West 423 487 34,000  Level FlightAware
07:38AM 52.1642 19.6493 261° West 422 486 34,000  Level FlightAware
07:39AM 52.1556 19.5592 261° West 420 483 34,000  Level FlightAware
07:39AM 52.1450 19.4501 261° West 418 481 34,000  Level FlightAware
07:40AM 52.1326 19.3256 261° West 416 479 34,000  Level FlightAware
07:41AM 52.1234 19.2322 261° West 415 478 34,000  Level FlightAware
07:41AM 52.1128 19.1259 261° West 415 478 34,000  Level FlightAware
07:42AM 52.1004 19.0042 261° West 415 478 34,000  Level FlightAware
07:42AM 52.0908 18.9110 80° East 415 478 34,000  Level FlightAware
07:43AM 52.0924 18.9254 260° West 416 479 34,000  Level FlightAware
07:44AM 52.0669 18.6810 260° West 416 479 34,000  Level FlightAware
07:44AM 52.0568 18.5844 260° West 416 479 34,000  Level FlightAware
07:45AM 52.0454 18.4777 260° West 416 479 34,000  Level FlightAware
07:45AM 52.0321 18.3538 262° West 417 480 34,000  Level FlightAware
07:46AM 52.0320 18.3526 260° West 418 481 34,000  Level FlightAware
07:47AM 52.0105 18.1538 260° West 419 482 34,000  Level FlightAware
07:47AM 51.9982 18.0424 260° West 419 482 34,000  Level FlightAware
07:48AM 51.9858 17.9302 260° West 417 480 34,000  Level FlightAware
07:48AM 51.9748 17.8324 260° West 416 479 34,000  Level FlightAware
07:49AM 51.9626 17.7249 260° West 415 478 34,000  Level FlightAware
07:49AM 51.9500 17.6150 260° West 415 478 34,000  Level FlightAware
07:50AM 51.9361 17.4938 259° West 415 478 34,000  Level FlightAware
07:51AM 51.9253 17.3999 259° West 414 476 34,000  Level FlightAware
07:51AM 51.9138 17.3007 259° West 416 479 34,000  Level FlightAware
07:52AM 51.8985 17.1710 259° West 418 481 34,000  Level FlightAware
07:52AM 51.8889 17.0908 259° West 419 482 34,000  Level FlightAware
07:53AM 51.8749 16.9748 259° West 419 482 34,000  Level FlightAware
07:54AM 51.8595 16.8461 259° West 420 483 34,000  Level FlightAware
07:54AM 51.8484 16.7555 259° West 421 484 34,000  Level FlightAware
07:55AM 51.8332 16.6312 259° West 422 486 34,000  Level FlightAware
07:55AM 51.8227 16.5460 258° West 422 486 34,000  Level FlightAware
07:56AM 51.8087 16.4355 259° West 421 484 34,000  Level FlightAware
07:56AM 51.7950 16.3265 258° West 421 484 34,000  Level FlightAware
07:57AM 51.7796 16.2048 258° West 420 483 34,000  Level FlightAware
07:58AM 51.7700 16.1290 258° West 419 482 34,000  Level FlightAware
07:58AM 51.7560 16.0187 258° West 418 481 34,000  Level FlightAware
07:59AM 51.7420 15.9118 258° West 419 482 34,000  Level FlightAware
07:59AM 51.7281 15.8056 258° West 416 479 34,000 60 Level FlightAware
08:00AM 51.7160 15.7131 258° West 415 478 34,100  Climbing FlightAware
08:00AM 51.7003 15.5937 258° West 412 474 34,000 -120 Descending FlightAware
08:01AM 51.6889 15.5084 258° West 411 473 34,000  Level FlightAware
08:02AM 51.6703 15.3700 258° West 409 471 34,000 -120 Level FlightAware
08:02AM 51.6545 15.2539 258° West 407 468 33,900  Descending FlightAware
08:03AM 51.6419 15.1618 256° West 410 472 34,000  Climbing FlightAware
08:04AM 51.6241 15.0479 255° West 413 475 33,900  Descending FlightAware
08:04AM 51.6066 14.9440 255° West 416 479 34,000 60 Climbing FlightAware
08:05AM 51.5860 14.8215 255° West 418 481 34,000 60 Level FlightAware
08:05AM 51.5690 14.7212 255° West 419 482 34,100 60 Climbing FlightAware
08:06AM 51.5502 14.6118 255° West 423 487 34,100  Level FlightAware
08:07AM 51.5332 14.5126 255° West 423 487 34,100  Level FlightAware
08:07AM 51.5168 14.4176 254° West 421 484 34,100 -120 Level FlightAware
08:08AM 51.4953 14.2945 254° West 418 481 34,000 -120 Descending FlightAware
08:08AM 51.4768 14.1895 254° West 415 478 34,000  Level FlightAware
08:09AM 51.4612 14.1008 254° West 414 476 34,000  Level FlightAware
08:09AM 51.4405 13.9841 254° West 411 473 34,000  Level FlightAware
08:10AM 51.4225 13.8837 254° West 409 471 34,000  Level FlightAware
08:11AM 51.4070 13.7978 254° West 408 470 34,000  Level FlightAware
08:11AM 51.3881 13.6922 254° West 406 467 34,000  Level FlightAware
08:12AM 51.3714 13.6005 254° West 403 464 34,000  Level FlightAware
08:12AM 51.3548 13.5096 254° West 401 461 34,000  Level FlightAware
08:13AM 51.3281 13.3640 254° West 398 458 34,000  Level FlightAware
08:14AM 51.3105 13.2689 254° West 397 457 34,000 -120 Level FlightAware
08:14AM 51.2880 13.1474 253° West 397 457 33,900 -120 Descending FlightAware
08:15AM 51.2711 13.0573 253° West 401 461 33,900 -600 Level FlightAware
08:15AM 51.2523 12.9573 253° West 403 464 33,300 -1,080 Descending FlightAware
08:16AM 51.2308 12.8433 253° West 413 475 32,600 -1,080 Descending FlightAware
08:17AM 51.2115 12.7413 253° West 416 479 32,000 -960 Descending FlightAware
08:17AM 51.1931 12.6456 253° West 415 478 31,500 -960 Descending FlightAware
08:18AM 51.1751 12.5515 253° West 414 476 31,000 -960 Descending FlightAware
08:18AM 51.1535 12.4397 253° West 416 479 30,400 -960 Descending FlightAware
08:19AM 51.1359 12.3489 253° West 412 474 29,900 -1,020 Descending FlightAware
08:20AM 51.1148 12.2412 253° West 409 471 29,300 -960 Descending FlightAware
08:20AM 51.0957 12.1438 253° West 407 468 28,800 -1,020 Descending FlightAware
08:21AM 51.0732 12.0294 253° West 417 480 28,100 -1,080 Descending FlightAware
08:21AM 51.0555 11.9400 252° West 418 481 27,600 -960 Descending FlightAware
08:22AM 51.0344 11.8347 253° West 423 487 27,100 -1,080 Descending FlightAware
08:23AM 51.0109 11.7164 252° West 423 487 26,300 -1,080 Descending FlightAware
08:23AM 50.9932 11.6286 252° West 417 480 25,900 -960 Descending FlightAware
08:24AM 50.9697 11.5131 245° Southwest 413 475 25,200 -1,140 Descending FlightAware
08:24AM 50.9521 11.4536 232° Southwest 408 470 24,800 -1,080 Descending FlightAware
08:24AM 50.9292 11.4072 224° Southwest 400 460 24,500 -960 Descending FlightAware
08:25AM 50.8804 11.3330 223° Southwest 403 464 23,900 -1,020 Descending FlightAware
08:26AM 50.8357 11.2660 224° Southwest 401 461 23,300 -1,140 Descending FlightAware
08:26AM 50.7959 11.2059 224° Southwest 398 458 22,800 -960 Descending FlightAware
08:27AM 50.7520 11.1395 223° Southwest 385 443 22,300 -660 Descending FlightAware
08:27AM 50.6971 11.0574 223° Southwest 379 436 22,000 -240 Descending FlightAware
08:28AM 50.6475 10.9841 224° Southwest 379 436 22,000  Level FlightAware
08:29AM 50.5968 10.9080 238° Southwest 379 436 22,000  Level FlightAware
08:29AM 50.5700 10.8398 246° West 386 444 22,000 -240 Level FlightAware
08:30AM 50.5434 10.7459 254° West 381 438 21,800 -480 Descending FlightAware
08:30AM 50.5336 10.6932 265° West 371 427 21,600 -720 Descending FlightAware
08:31AM 50.5287 10.6035 265° West 347 399 21,100 -1,200 Descending FlightAware
08:31AM 50.5234 10.5042 265° West 334 384 20,100 -960 Descending FlightAware
08:32AM 50.5199 10.4367 266° West 342 394 20,000 -120 Descending FlightAware
08:32AM 50.5154 10.3447 265° West 341 392 20,000 -300 Level FlightAware
08:33AM 50.5103 10.2465 266° West 338 389 19,700 -1,080 Descending FlightAware
08:34AM 50.5067 10.1739 265° West 337 388 18,800 -1,800 Descending FlightAware
08:34AM 50.5023 10.0878 265° West 333 383 17,800 -1,800 Descending FlightAware
08:35AM 50.4973 9.9923 265° West 326 375 16,700 -1,740 Descending FlightAware
08:35AM 50.4936 9.9230 265° West 321 369 15,800 -1,680 Descending FlightAware
08:36AM 50.4890 9.8355 265° West 318 366 14,800 -1,620 Descending FlightAware
08:37AM 50.4845 9.7535 265° West 311 358 13,700 -1,680 Descending FlightAware
08:37AM 50.4806 9.6846 265° West 313 360 12,900 -1,500 Descending FlightAware
08:38AM 50.4760 9.6026 259° West 314 361 12,100 -1,140 Descending FlightAware
08:38AM 50.4713 9.5645 254° West 317 365 12,000 -120 Descending FlightAware
08:39AM 50.4551 9.4774 253° West 310 357 12,000 -120 Level FlightAware
08:39AM 50.4435 9.4161 253° West 306 352 11,900 -540 Descending FlightAware
08:40AM 50.4307 9.3485 253° West 304 350 11,400 -720 Descending FlightAware
08:40AM 50.4156 9.2728 233° Southwest 320 368 11,000 -480 Descending FlightAware
08:41AM 50.4002 9.2404 213° Southwest 318 366 11,000  Level FlightAware
08:41AM 50.3575 9.1971 212° Southwest 296 341 11,000  Level FlightAware
08:42AM 50.3201 9.1606 214° Southwest 293 337 11,000  Level FlightAware
08:42AM 50.2764 9.1145 239° Southwest 297 342 11,000  Level FlightAware
08:43AM 50.2647 9.0841 250° West 301 346 11,000  Level FlightAware
08:43AM 50.2446 8.9980 250° West 302 348 11,000  Level FlightAware
08:44AM 50.2311 8.9402 250° West 287 330 11,000  Level FlightAware
08:44AM 50.2187 8.8878 250° West 255 293 11,000  Level FlightAware
08:45AM 50.2026 8.8200 250° West 244 281 11,000  Level FlightAware
08:46AM 50.1890 8.7625 250° West 245 282 11,000 -360 Level FlightAware
08:46AM 50.1754 8.7047 250° West 244 281 10,600 -1,080 Descending FlightAware
08:47AM 50.1625 8.6504 250° West 248 285 9,800 -1,440 Descending FlightAware
08:47AM 50.1538 8.6139 250° West 247 284 9,300 -1,380 Descending FlightAware
08:47AM 50.1475 8.5875 250° West 246 283 9,000 -1,200 Descending FlightAware
08:48AM 50.1356 8.5373 249° West 243 280 8,400 -1,260 Descending FlightAware
08:48AM 50.1279 8.5054 249° West 239 275 8,000 -840 Descending FlightAware
08:48AM 50.1222 8.4818 249° West 239 275 8,000  Level FlightAware
08:49AM 50.1166 8.4586 249° West 240 276 8,000  Level FlightAware
08:49AM 50.1026 8.4005 250° West 239 275 8,000 -240 Level FlightAware
08:49AM 50.0970 8.3767 249° West 236 272 7,800 -1,080 Descending FlightAware
08:50AM 50.0892 8.3445 250° West 234 269 7,400 -900 Descending FlightAware
08:50AM 50.0814 8.3120 249° West 240 276 7,200 -900 Descending FlightAware
08:51AM 50.0691 8.2609 249° West 236 272 6,700 -840 Descending FlightAware
08:51AM 50.0639 8.2399 249° West 235 270 6,600 -600 Descending FlightAware
08:51AM 50.0567 8.2102 249° West 235 270 6,300 -900 Descending FlightAware
08:52AM 50.0491 8.1790 249° West 235 270 6,000 -840 Descending FlightAware
08:52AM 50.0409 8.1457 249° West 238 274 5,800 -540 Descending FlightAware
08:52AM 50.0313 8.1061 249° West 239 275 5,600 -540 Descending FlightAware
08:53AM 50.0240 8.0763 242° Southwest 239 275 5,400 -540 Descending FlightAware
08:53AM 50.0150 8.0502 223° Southwest 236 272 5,300 -300 Descending FlightAware
08:53AM 50.0122 8.0461 215° Southwest 232 267 5,300 -600 Level FlightAware
08:53AM 50.0094 8.0431 205° Southwest 224 258 5,200 -600 Descending FlightAware
08:53AM 50.0019 8.0376 181° South 221 254 5,200 -600 Level FlightAware
08:53AM 49.9863 8.0371 145° Southeast 229 264 5,000 -540 Descending FlightAware
08:54AM 49.9685 8.0564 117° Southeast 229 264 4,900 -540 Descending FlightAware
08:54AM 49.9660 8.0640 109° East 230 265 4,800 -600 Descending FlightAware
08:54AM 49.9645 8.0707 315° West 231 266 4,800 -720 Level FlightAware
08:54AM 49.9863 8.0371 114° Southeast 234 269 4,500 -720 Descending FlightAware
08:55AM 49.9568 8.1419 294° West 230 265 4,300  Descending FlightAware
08:55AM 49.9863 8.0371 103° East 228 262 4,500 -900 Climbing FlightAware
08:55AM 49.9638 8.1922 71° East 228 262 3,900 -1,320 Descending FlightAware
08:55AM 49.9656 8.2005 70° East 218 251 3,900 -300 Level FlightAware
08:55AM 49.9706 8.2217 69° East 202 232 3,800 -540 Descending FlightAware
08:56AM 49.9764 8.2458 69° East 192 221 3,600 -840 Descending FlightAware
08:56AM 49.9823 8.2702 69° East 186 214 3,200 -1,200 Descending FlightAware
08:57AM 49.9911 8.3060 69° East 173 199 2,700 -960 Descending FlightAware
08:58AM 50.0132 8.3979 69° East 164 189 1,500 -840 Descending FlightAware
08:58AM 50.0185 8.4198 69° East 148 170 1,200 -720 Descending FlightAware
08:59AM 50.0262 8.4517 69° East 139 160 800 -720 Descending FlightAware
08:59AM 50.0316 8.4741 97° East 143 165 500 -720 Descending FlightAware
09:07AM 49.9392 9.6317 278° West  Level Estimated
09:08AM 49.9527 9.4704 278° West  Level Estimated